ISR569 LLBG-LGAV
Flight info
| Callsign | ISR569 |
|---|---|
| Flight time | N/A |
| Altitude | 34000 |
| Route | SUVAS N128 OTHON DCT USINI UL995 VARIX |
| Aircraft | A320/M-SDE2FGIJ1LORVWY/SB1 |
Departure
| Time | 2026-05-01 15:08 |
|---|---|
| Airport | Ben Gurion International Airport (LLBG) |
Arrival
| Time | N/A |
|---|---|
| Airport | Athens Eleftherios Venizelos International Airport (LGAV) |
| Time | Latitude | Longitude | Altitude | Speed | Heading |
|---|---|---|---|---|---|
| 2026-05-01 14:53 | 32.00597 | 34.87488 | 120 ft | 0 kts | 243° |
| 2026-05-01 14:56 | 32.00598 | 34.87488 | 120 ft | 0 kts | 243° |
| 2026-05-01 15:00 | 32.00598 | 34.87490 | 120 ft | 2 kts | 243° |
| 2026-05-01 15:00 | 32.00610 | 34.87517 | 116 ft | 4 kts | 244° |
| 2026-05-01 15:00 | 32.00621 | 34.87545 | 119 ft | 4 kts | 242° |
| 2026-05-01 15:01 | 32.00637 | 34.87567 | 115 ft | 4 kts | 194° |
| 2026-05-01 15:01 | 32.00658 | 34.87562 | 117 ft | 3 kts | 123° |
| 2026-05-01 15:01 | 32.00657 | 34.87564 | 117 ft | 4 kts | 121° |
| 2026-05-01 15:01 | 32.00643 | 34.87591 | 117 ft | 4 kts | 122° |
| 2026-05-01 15:02 | 32.00629 | 34.87618 | 119 ft | 4 kts | 121° |
| 2026-05-01 15:02 | 32.00625 | 34.87624 | 120 ft | 0 kts | 121° |
| 2026-05-01 15:03 | 32.00623 | 34.87629 | 118 ft | 3 kts | 121° |
| 2026-05-01 15:03 | 32.00609 | 34.87680 | 118 ft | 12 kts | 86° |
| 2026-05-01 15:04 | 32.00616 | 34.87787 | 120 ft | 15 kts | 105° |
| 2026-05-01 15:04 | 32.00596 | 34.87915 | 119 ft | 17 kts | 59° |
| 2026-05-01 15:04 | 32.00707 | 34.88009 | 117 ft | 22 kts | 33° |
| 2026-05-01 15:04 | 32.00844 | 34.88105 | 118 ft | 24 kts | 31° |
| 2026-05-01 15:05 | 32.01052 | 34.88253 | 118 ft | 42 kts | 31° |
| 2026-05-01 15:05 | 32.01295 | 34.88438 | 117 ft | 41 kts | 41° |
| 2026-05-01 15:05 | 32.01461 | 34.88710 | 117 ft | 41 kts | 67° |
| 2026-05-01 15:05 | 32.01527 | 34.89037 | 120 ft | 41 kts | 79° |
| 2026-05-01 15:06 | 32.01625 | 34.89155 | 118 ft | 22 kts | 358° |
| 2026-05-01 15:06 | 32.01747 | 34.89087 | 119 ft | 16 kts | 272° |
| 2026-05-01 15:06 | 32.01741 | 34.89061 | 119 ft | 0 kts | 251° |
| 2026-05-01 15:07 | 32.01731 | 34.88991 | 119 ft | 34 kts | 260° |
| 2026-05-01 15:07 | 32.01647 | 34.88446 | 122 ft | 97 kts | 260° |
| 2026-05-01 15:07 | 32.01497 | 34.87468 | 119 ft | 143 kts | 259° |
| 2026-05-01 15:07 | 32.01298 | 34.86187 | 328 ft | 164 kts | 263° |
| 2026-05-01 15:08 | 32.01054 | 34.84895 | 972 ft | 164 kts | 259° |
| 2026-05-01 15:08 | 32.00784 | 34.83575 | 1561 ft | 166 kts | 257° |
| 2026-05-01 15:08 | 32.00503 | 34.82211 | 1976 ft | 180 kts | 258° |
| 2026-05-01 15:08 | 32.00208 | 34.80786 | 2507 ft | 181 kts | 258° |
| 2026-05-01 15:09 | 31.99910 | 34.79341 | 3064 ft | 185 kts | 257° |
| 2026-05-01 15:09 | 31.99594 | 34.77796 | 3355 ft | 204 kts | 257° |
| 2026-05-01 15:09 | 31.99256 | 34.76066 | 3621 ft | 228 kts | 262° |
| 2026-05-01 15:09 | 31.99368 | 34.74128 | 3969 ft | 250 kts | 288° |
| 2026-05-01 15:10 | 31.99980 | 34.72169 | 4673 ft | 258 kts | 290° |
| 2026-05-01 15:10 | 32.01237 | 34.68171 | 6318 ft | 263 kts | 289° |
| 2026-05-01 15:10 | 32.01875 | 34.66123 | 7103 ft | 266 kts | 289° |
| 2026-05-01 15:11 | 32.02493 | 34.64086 | 7868 ft | 268 kts | 285° |
| 2026-05-01 15:11 | 32.03046 | 34.56136 | 10336 ft | 286 kts | 274° |
| 2026-05-01 15:11 | 32.03312 | 34.51092 | 10640 ft | 330 kts | 274° |
| 2026-05-01 15:12 | 32.03620 | 34.45355 | 10890 ft | 370 kts | 274° |
| 2026-05-01 15:12 | 32.04340 | 34.32735 | 12992 ft | 391 kts | 274° |
| 2026-05-01 15:12 | 32.04715 | 34.26372 | 14138 ft | 396 kts | 277° |
| 2026-05-01 15:13 | 32.12190 | 34.08672 | 17007 ft | 411 kts | 300° |
| 2026-05-01 15:14 | 32.18153 | 33.97026 | 18712 ft | 421 kts | 302° |
| 2026-05-01 15:14 | 32.21553 | 33.91345 | 19502 ft | 424 kts | 305° |
| 2026-05-01 15:14 | 32.28562 | 33.80035 | 20929 ft | 431 kts | 304° |
| 2026-05-01 15:15 | 32.35512 | 33.68418 | 22444 ft | 430 kts | 304° |
| 2026-05-01 15:15 | 32.42384 | 33.56924 | 24197 ft | 424 kts | 303° |
| 2026-05-01 15:16 | 32.49126 | 33.45628 | 25842 ft | 418 kts | 303° |
| 2026-05-01 15:16 | 32.55788 | 33.34426 | 27627 ft | 412 kts | 302° |
| 2026-05-01 15:17 | 32.64856 | 33.19143 | 30211 ft | 404 kts | 302° |
| 2026-05-01 15:18 | 32.83833 | 32.86886 | 33952 ft | 409 kts | 302° |
| 2026-05-01 15:18 | 32.90409 | 32.75655 | 34070 ft | 411 kts | 302° |
| 2026-05-01 15:19 | 33.09998 | 32.42027 | 33847 ft | 414 kts | 301° |
| 2026-05-01 15:19 | 33.20389 | 32.24020 | 34030 ft | 409 kts | 301° |